Time;durP1;ratioP1;P1;durP2;ratioP2;P2;SDS_P1;SDS_P2;PMS_P1;PMS_P2;Temp;Humidity;BMP_temperature;BMP_pressure;BME280_temperature;BME280_humidity;BME280_pressure;Samples;Min_cycle;Max_cycle;Signal;HPM_P1;HPM_P2
2023/03/13 00:01:51;;;;;;;14.67;11.17;;;3.00;99.90;;;;;;5098561;28;20563;-77
2023/03/13 00:04:18;;;;;;;22.00;15.80;;;3.00;99.90;;;;;;5101534;28;20503;-77
2023/03/13 00:06:45;;;;;;;16.90;15.10;;;3.00;99.90;;;;;;5097578;28;20493;-77
2023/03/13 00:09:15;;;;;;;18.00;15.57;;;3.00;99.90;;;;;;5097052;28;20491;-77
2023/03/13 00:11:44;;;;;;;16.33;12.67;;;3.00;99.90;;;;;;5095589;28;20519;-77
2023/03/13 00:14:12;;;;;;;14.57;12.40;;;3.10;99.90;;;;;;5102348;28;20850;-77
2023/03/13 00:16:39;;;;;;;20.00;11.67;;;3.10;99.90;;;;;;5106174;28;20450;-77
2023/03/13 00:19:07;;;;;;;15.67;10.50;;;3.10;99.90;;;;;;5106381;28;20455;-76
2023/03/13 00:21:36;;;;;;;13.43;11.97;;;3.20;99.90;;;;;;5105153;28;20463;-77
2023/03/13 00:24:03;;;;;;;15.33;11.10;;;3.20;99.90;;;;;;5092343;28;20467;-77
2023/03/13 00:26:31;;;;;;;14.03;10.47;;;3.20;99.90;;;;;;5100594;28;20553;-77
2023/03/13 00:28:59;;;;;;;12.70;9.83;;;3.20;99.90;;;;;;5103819;28;20918;-77
2023/03/13 00:31:28;;;;;;;16.77;11.17;;;3.30;99.90;;;;;;5100272;28;20894;-77
2023/03/13 00:33:57;;;;;;;12.97;11.77;;;3.30;99.90;;;;;;5101667;28;20816;-77
2023/03/13 00:36:26;;;;;;;19.53;11.07;;;3.20;99.90;;;;;;5097890;28;20469;-77
2023/03/13 00:38:55;;;;;;;13.87;10.83;;;3.20;99.90;;;;;;5106328;28;20892;-77
2023/03/13 00:41:23;;;;;;;13.43;10.20;;;3.20;99.90;;;;;;5100675;28;20476;-77
2023/03/13 00:43:51;;;;;;;9.80;8.77;;;3.10;99.90;;;;;;5110447;28;20495;-77
2023/03/13 00:46:22;;;;;;;11.57;9.10;;;3.20;99.90;;;;;;5104240;28;20515;-77
2023/03/13 00:48:49;;;;;;;11.23;8.60;;;3.10;99.90;;;;;;5111292;27;20442;-77
2023/03/13 00:51:18;;;;;;;12.60;9.47;;;3.10;99.90;;;;;;5109230;27;20528;-77
2023/03/13 00:53:45;;;;;;;12.33;10.50;;;3.20;99.90;;;;;;5102904;28;20443;-77
2023/03/13 00:56:14;;;;;;;12.70;10.37;;;3.20;99.90;;;;;;5108450;28;20455;-76
2023/03/13 00:58:43;;;;;;;11.30;8.80;;;3.20;99.90;;;;;;5103997;28;20550;-77
2023/03/13 01:01:12;;;;;;;9.60;8.70;;;3.10;99.90;;;;;;5102379;28;20565;-77
2023/03/13 01:03:42;;;;;;;8.33;7.43;;;3.10;99.90;;;;;;5109646;28;20819;-77
2023/03/13 01:06:11;;;;;;;16.83;9.10;;;3.10;99.90;;;;;;5101835;28;20447;-77
2023/03/13 01:08:39;;;;;;;9.53;8.60;;;3.20;99.90;;;;;;5102170;28;20519;-77
2023/03/13 01:11:09;;;;;;;10.27;8.93;;;3.20;99.90;;;;;;5105358;28;20462;-76
2023/03/13 01:13:37;;;;;;;9.47;8.47;;;3.10;99.90;;;;;;5107440;28;20470;-77
2023/03/13 01:16:06;;;;;;;11.30;9.03;;;3.00;99.90;;;;;;5106171;28;20450;-77
2023/03/13 01:18:34;;;;;;;9.50;8.50;;;2.90;99.90;;;;;;5107559;28;20458;-77
2023/03/13 01:21:03;;;;;;;9.43;8.50;;;3.00;99.90;;;;;;5102665;28;20495;-77
2023/03/13 01:23:30;;;;;;;10.37;9.23;;;2.90;99.90;;;;;;5105948;28;20534;-77
2023/03/13 01:25:58;;;;;;;10.47;9.37;;;2.90;99.90;;;;;;5101684;28;20490;-77
2023/03/13 01:28:26;;;;;;;11.57;10.37;;;2.90;99.90;;;;;;5109428;28;20806;-76
2023/03/13 01:30:53;;;;;;;11.03;9.33;;;3.00;99.90;;;;;;5098920;28;20459;-76
2023/03/13 01:33:20;;;;;;;10.80;9.43;;;3.00;99.90;;;;;;5099232;28;20470;-77
2023/03/13 01:35:47;;;;;;;10.50;7.77;;;3.00;99.90;;;;;;5105757;28;20927;-77
2023/03/13 01:38:15;;;;;;;12.90;10.33;;;2.90;99.90;;;;;;5108776;28;20800;-77
2023/03/13 01:40:44;;;;;;;14.50;10.93;;;3.10;99.90;;;;;;5103273;28;20475;-77
2023/03/13 01:43:19;;;;;;;14.07;10.83;;;3.10;99.90;;;;;;5102194;28;20461;-77
2023/03/13 01:45:59;;;;;;;12.67;11.30;;;3.00;99.90;;;;;;5095124;28;20442;-77
2023/03/13 01:48:33;;;;;;;15.53;10.23;;;3.00;99.90;;;;;;5099210;28;20524;-77
2023/03/13 01:51:03;;;;;;;13.43;10.50;;;3.00;99.90;;;;;;5107540;28;20450;-77
2023/03/13 01:53:34;;;;;;;12.77;10.57;;;2.90;99.90;;;;;;5108001;28;20545;-77
2023/03/13 01:56:04;;;;;;;11.70;8.73;;;2.90;99.90;;;;;;5107600;28;20511;-77
2023/03/13 01:58:32;;;;;;;10.67;7.90;;;2.80;99.90;;;;;;5097011;28;20524;-77
2023/03/13 02:01:00;;;;;;;14.70;9.87;;;2.70;99.90;;;;;;5096643;28;20488;-77
2023/03/13 02:03:28;;;;;;;12.57;10.90;;;2.60;99.90;;;;;;5099615;28;20955;-77
2023/03/13 02:05:56;;;;;;;11.37;10.27;;;2.60;99.90;;;;;;5097373;28;20461;-76
2023/03/13 02:08:29;;;;;;;11.83;8.60;;;2.60;99.90;;;;;;5100526;28;20455;-77
2023/03/13 02:11:07;;;;;;;10.80;8.27;;;2.50;99.90;;;;;;5096477;28;20508;-76
2023/03/13 02:13:34;;;;;;;13.60;8.90;;;2.60;99.90;;;;;;5107538;28;20458;-77
2023/03/13 02:16:01;;;;;;;10.37;7.87;;;2.50;99.90;;;;;;5105601;28;20466;-77
2023/03/13 02:18:28;;;;;;;10.33;8.93;;;2.40;99.90;;;;;;5101745;28;20463;-77
2023/03/13 02:21:05;;;;;;;11.30;10.20;;;2.30;99.90;;;;;;5099949;28;20486;-76
2023/03/13 02:23:39;;;;;;;16.90;11.40;;;2.20;99.90;;;;;;5096832;28;20446;-76
2023/03/13 02:26:07;;;;;;;11.53;10.30;;;2.20;99.90;;;;;;5106396;28;20486;-76
2023/03/13 02:28:37;;;;;;;17.00;10.70;;;2.10;99.90;;;;;;5106149;28;20587;-77
2023/03/13 02:31:05;;;;;;;8.27;7.53;;;2.10;99.90;;;;;;5093770;28;20462;-77
2023/03/13 02:33:36;;;;;;;11.63;9.87;;;2.10;99.90;;;;;;5105622;28;20546;-77
2023/03/13 02:36:05;;;;;;;9.27;8.20;;;2.20;99.90;;;;;;5100127;28;20512;-76
2023/03/13 02:38:35;;;;;;;10.90;8.40;;;2.20;99.90;;;;;;5102811;28;20528;-77
2023/03/13 02:41:04;;;;;;;13.97;10.17;;;2.20;99.90;;;;;;5099843;27;20478;-76
2023/03/13 02:43:34;;;;;;;16.13;13.30;;;2.30;99.90;;;;;;5097636;28;20504;-76
2023/03/13 02:46:03;;;;;;;17.13;13.50;;;2.50;99.90;;;;;;5096175;28;20463;-77
2023/03/13 02:48:33;;;;;;;22.33;12.23;;;2.50;99.90;;;;;;5103842;28;20482;-76
2023/03/13 02:51:02;;;;;;;15.57;10.70;;;2.50;99.90;;;;;;5107185;28;20810;-76
2023/03/13 02:53:29;;;;;;;11.10;9.10;;;2.50;99.90;;;;;;5107603;28;20788;-76
2023/03/13 02:55:56;;;;;;;13.60;12.17;;;2.30;99.90;;;;;;5106839;28;20505;-76
2023/03/13 02:58:24;;;;;;;14.57;9.93;;;2.20;99.90;;;;;;5099924;28;20950;-76
2023/03/13 03:00:53;;;;;;;14.13;11.37;;;2.20;99.90;;;;;;5105183;28;20482;-77
2023/03/13 03:03:19;;;;;;;13.37;10.53;;;2.10;99.90;;;;;;5098526;28;20466;-76
2023/03/13 03:05:46;;;;;;;19.53;13.60;;;2.00;99.90;;;;;;5105596;28;20447;-76
2023/03/13 03:08:13;;;;;;;15.40;12.70;;;1.90;99.90;;;;;;5097517;28;20493;-76
2023/03/13 03:10:40;;;;;;;19.30;14.50;;;1.80;99.90;;;;;;5099673;28;20455;-76
2023/03/13 03:13:07;;;;;;;14.73;11.77;;;1.80;99.90;;;;;;5103914;28;20481;-76
2023/03/13 03:15:34;;;;;;;19.33;14.60;;;1.70;99.90;;;;;;5099378;28;20503;-77
2023/03/13 03:18:02;;;;;;;19.77;16.00;;;1.80;99.90;;;;;;5102033;28;20454;-77
2023/03/13 03:20:29;;;;;;;20.00;16.30;;;2.00;99.90;;;;;;5092892;28;20547;-76
2023/03/13 03:22:56;;;;;;;18.70;15.10;;;2.10;99.90;;;;;;5095882;28;20532;-76
2023/03/13 03:25:23;;;;;;;23.00;16.90;;;2.10;99.90;;;;;;5101013;28;20491;-77
2023/03/13 03:27:50;;;;;;;22.50;16.20;;;2.20;99.90;;;;;;5102132;28;20446;-77
2023/03/13 03:30:17;;;;;;;21.33;17.33;;;2.20;99.90;;;;;;5102186;28;20531;-77
2023/03/13 03:32:44;;;;;;;24.80;20.63;;;2.20;99.90;;;;;;5105034;28;20503;-76
2023/03/13 03:35:13;;;;;;;28.63;19.70;;;2.30;99.90;;;;;;5106819;28;20447;-76
2023/03/13 03:37:40;;;;;;;205.17;42.10;;;2.30;99.90;;;;;;5097750;28;20439;-76
2023/03/13 03:40:08;;;;;;;153.27;43.47;;;2.20;99.90;;;;;;5099290;28;21143;-77
2023/03/13 03:42:35;;;;;;;114.70;32.13;;;2.10;99.90;;;;;;5106219;28;20496;-77
2023/03/13 03:45:02;;;;;;;100.27;27.40;;;2.00;99.90;;;;;;5105478;28;20475;-76
2023/03/13 03:47:29;;;;;;;20.80;17.43;;;2.00;99.90;;;;;;5101952;28;20454;-76
2023/03/13 03:49:56;;;;;;;19.90;17.43;;;2.10;99.90;;;;;;5107128;28;20939;-77
2023/03/13 03:52:24;;;;;;;24.23;17.97;;;2.20;99.90;;;;;;5094661;28;20467;-77
2023/03/13 03:54:51;;;;;;;20.13;16.73;;;2.20;99.90;;;;;;5103667;28;20446;-76
2023/03/13 03:57:18;;;;;;;21.97;17.57;;;2.20;99.90;;;;;;5106179;28;20936;-76
2023/03/13 03:59:45;;;;;;;24.30;18.67;;;2.30;99.90;;;;;;5105895;28;20450;-76
2023/03/13 04:02:12;;;;;;;22.70;17.47;;;2.30;99.90;;;;;;5102910;28;20540;-76
2023/03/13 04:04:39;;;;;;;20.93;16.63;;;2.20;99.90;;;;;;5102554;28;20463;-76
2023/03/13 04:07:09;;;;;;;26.03;19.17;;;2.30;99.90;;;;;;5104172;28;20458;-76
2023/03/13 04:09:37;;;;;;;24.37;18.73;;;2.30;99.90;;;;;;5099704;28;20463;-76
2023/03/13 04:12:04;;;;;;;24.20;16.80;;;2.30;99.90;;;;;;5097184;28;20447;-76
2023/03/13 04:14:31;;;;;;;22.13;17.80;;;2.20;99.90;;;;;;5107389;28;20511;-77
2023/03/13 04:16:58;;;;;;;23.03;17.70;;;2.20;99.90;;;;;;5103414;28;20519;-76
2023/03/13 04:19:25;;;;;;;24.90;19.73;;;2.10;99.90;;;;;;5106971;28;20470;-76
2023/03/13 04:21:52;;;;;;;21.00;18.40;;;2.00;99.90;;;;;;5104030;28;21069;-77
2023/03/13 04:24:19;;;;;;;24.10;18.73;;;2.10;99.90;;;;;;5098501;28;20524;-77
2023/03/13 04:26:47;;;;;;;21.67;18.03;;;2.20;99.90;;;;;;5107230;28;20478;-77
2023/03/13 04:29:14;;;;;;;22.90;18.47;;;2.10;99.90;;;;;;5098946;28;20527;-75
2023/03/13 04:31:41;;;;;;;23.67;17.23;;;2.20;99.90;;;;;;5100558;28;20510;-76
2023/03/13 04:34:08;;;;;;;20.80;16.63;;;2.20;99.90;;;;;;5103407;27;20466;-76
2023/03/13 04:36:35;;;;;;;22.80;15.60;;;2.10;99.90;;;;;;5107276;28;20455;-76
2023/03/13 04:39:02;;;;;;;23.97;16.07;;;2.20;99.90;;;;;;5108361;28;20462;-76
2023/03/13 04:41:29;;;;;;;22.77;17.10;;;2.20;99.90;;;;;;5110065;28;20486;-76
2023/03/13 04:43:57;;;;;;;23.27;16.97;;;2.20;99.90;;;;;;5108442;28;20570;-76
2023/03/13 04:46:24;;;;;;;23.87;15.70;;;2.20;99.90;;;;;;5105737;28;20458;-77
2023/03/13 04:48:51;;;;;;;19.40;14.00;;;2.30;99.90;;;;;;5110410;28;20864;-76
2023/03/13 04:51:18;;;;;;;34.43;14.03;;;2.40;99.90;;;;;;5103565;28;20492;-76
2023/03/13 04:53:45;;;;;;;14.03;12.53;;;2.50;99.90;;;;;;5105533;28;20507;-76
2023/03/13 04:56:15;;;;;;;18.47;14.53;;;2.50;99.90;;;;;;5101261;28;20582;-76
2023/03/13 04:58:42;;;;;;;42.33;23.20;;;2.50;99.90;;;;;;5108487;28;20458;-77
2023/03/13 05:01:10;;;;;;;117.37;51.60;;;2.60;99.90;;;;;;5102066;28;20531;-76
2023/03/13 05:03:37;;;;;;;79.60;40.07;;;2.60;99.90;;;;;;5108422;28;20470;-76
2023/03/13 05:06:05;;;;;;;35.90;20.50;;;2.80;99.90;;;;;;5105769;28;20450;-77
2023/03/13 05:08:32;;;;;;;14.67;11.83;;;2.90;99.90;;;;;;5105661;28;20473;-76
2023/03/13 05:10:59;;;;;;;25.00;13.80;;;3.00;99.90;;;;;;5107788;28;20463;-76
2023/03/13 05:13:26;;;;;;;23.80;16.03;;;3.00;99.90;;;;;;5106141;28;20504;-76
2023/03/13 05:15:52;;;;;;;24.57;16.00;;;3.00;99.90;;;;;;5100642;28;21173;-76
2023/03/13 05:18:21;;;;;;;22.10;15.40;;;2.90;99.90;;;;;;5100608;28;20466;-77
2023/03/13 05:20:48;;;;;;;21.57;14.63;;;2.90;99.90;;;;;;5107430;28;21232;-76
2023/03/13 05:23:15;;;;;;;17.13;13.57;;;2.80;99.90;;;;;;5103401;28;20499;-76
2023/03/13 05:25:42;;;;;;;11.83;7.33;;;2.70;99.90;;;;;;5104834;28;21315;-76
2023/03/13 05:28:09;;;;;;;14.23;12.00;;;3.00;99.90;;;;;;5097453;28;20468;-77
2023/03/13 05:30:36;;;;;;;13.03;9.03;;;3.10;99.90;;;;;;5097346;28;20796;-76
2023/03/13 05:33:03;;;;;;;10.90;7.83;;;3.10;99.90;;;;;;5099453;28;20455;-76
2023/03/13 05:35:32;;;;;;;14.10;9.90;;;3.20;99.90;;;;;;5095290;28;20474;-76
2023/03/13 05:37:59;;;;;;;13.97;12.33;;;3.20;99.90;;;;;;5101297;28;20533;-76
2023/03/13 05:40:25;;;;;;;15.20;12.90;;;3.10;99.90;;;;;;5105931;28;20858;-76
2023/03/13 05:42:52;;;;;;;16.17;14.33;;;3.00;99.90;;;;;;5107355;28;20482;-76
2023/03/13 05:45:20;;;;;;;14.57;11.40;;;3.00;99.90;;;;;;5107619;28;20507;-76
2023/03/13 05:47:47;;;;;;;16.87;14.40;;;3.00;99.90;;;;;;5099161;28;20466;-76
2023/03/13 05:50:14;;;;;;;21.60;15.27;;;2.90;99.90;;;;;;5104534;28;20498;-76
2023/03/13 05:52:42;;;;;;;16.43;12.77;;;2.80;99.90;;;;;;5106648;28;20482;-77
2023/03/13 05:55:10;;;;;;;14.93;11.93;;;2.80;99.90;;;;;;5108130;28;20446;-77
2023/03/13 05:57:37;;;;;;;15.27;9.00;;;3.00;99.90;;;;;;5103390;28;20534;-77
2023/03/13 06:00:05;;;;;;;12.60;10.30;;;3.20;99.90;;;;;;5105535;28;20462;-75
2023/03/13 06:02:32;;;;;;;15.90;10.90;;;3.40;99.90;;;;;;5104672;28;20555;-76
2023/03/13 06:04:59;;;;;;;16.10;11.67;;;3.60;99.90;;;;;;5102303;28;20532;-76
2023/03/13 06:07:25;;;;;;;19.37;14.17;;;3.60;99.90;;;;;;5100118;28;20450;-76
2023/03/13 06:09:54;;;;;;;13.10;11.43;;;3.50;99.90;;;;;;5096277;28;20483;-76
2023/03/13 06:12:21;;;;;;;14.40;11.53;;;3.60;99.90;;;;;;5099354;28;21028;-76
2023/03/13 06:14:48;;;;;;;13.97;11.53;;;3.60;99.90;;;;;;5100020;28;20496;-76
2023/03/13 06:17:15;;;;;;;16.20;11.77;;;3.60;99.90;;;;;;5102650;28;20586;-77
2023/03/13 06:19:42;;;;;;;13.60;10.87;;;3.50;99.90;;;;;;5106719;28;20515;-78
2023/03/13 06:22:09;;;;;;;13.93;12.50;;;3.60;99.90;;;;;;5098541;28;20493;-77
2023/03/13 06:24:36;;;;;;;15.70;11.87;;;3.60;99.90;;;;;;5106776;28;20520;-77
2023/03/13 06:27:05;;;;;;;13.83;11.93;;;3.60;99.90;;;;;;5104261;28;20518;-77
2023/03/13 06:29:32;;;;;;;15.97;11.67;;;3.70;99.90;;;;;;5092343;28;20528;-78
2023/03/13 06:31:58;;;;;;;18.23;14.30;;;3.80;99.90;;;;;;5095916;28;20982;-77
2023/03/13 06:34:25;;;;;;;15.00;13.23;;;3.80;99.90;;;;;;5096087;28;20510;-77
2023/03/13 06:36:52;;;;;;;17.10;14.63;;;3.80;99.90;;;;;;5101743;28;20450;-77
2023/03/13 06:39:19;;;;;;;20.17;16.90;;;3.70;99.90;;;;;;5101302;28;20462;-77
2023/03/13 06:41:46;;;;;;;22.00;18.57;;;3.70;99.90;;;;;;5099269;28;20513;-77
2023/03/13 06:44:14;;;;;;;21.73;18.03;;;3.80;99.90;;;;;;5100932;28;20935;-77
2023/03/13 06:46:41;;;;;;;20.17;16.57;;;3.70;99.90;;;;;;5096828;28;21192;-78
2023/03/13 06:49:08;;;;;;;17.03;13.90;;;3.90;99.90;;;;;;5097362;28;20495;-76
2023/03/13 06:51:35;;;;;;;18.50;15.90;;;4.00;99.90;;;;;;5107616;28;20520;-77
2023/03/13 06:54:03;;;;;;;20.17;16.80;;;4.10;99.90;;;;;;5107345;28;20854;-76
2023/03/13 06:56:29;;;;;;;19.27;16.30;;;4.30;99.90;;;;;;5106460;28;20958;-77
2023/03/13 06:58:56;;;;;;;18.63;16.60;;;4.30;99.90;;;;;;5101710;28;20455;-77
2023/03/13 07:01:25;;;;;;;21.00;18.63;;;4.50;99.90;;;;;;5102547;28;20533;-77
2023/03/13 07:03:52;;;;;;;18.33;15.30;;;4.50;99.90;;;;;;5097796;28;20515;-80
2023/03/13 07:06:19;;;;;;;16.63;14.00;;;4.60;99.90;;;;;;5102068;28;21066;-77
2023/03/13 07:08:46;;;;;;;18.60;15.37;;;5.00;99.90;;;;;;5104797;28;20479;-77
2023/03/13 07:11:16;;;;;;;18.20;14.63;;;5.10;99.90;;;;;;5099354;28;20446;-77
2023/03/13 07:13:43;;;;;;;16.10;14.40;;;5.20;99.90;;;;;;5099911;28;21050;-77
2023/03/13 07:16:12;;;;;;;17.77;15.97;;;5.30;99.90;;;;;;5099626;28;20455;-78
2023/03/13 07:18:43;;;;;;;15.93;14.00;;;5.30;99.90;;;;;;5104749;28;20511;-78
2023/03/13 07:21:11;;;;;;;14.30;12.87;;;5.50;99.90;;;;;;5100269;28;20462;-77
2023/03/13 07:23:38;;;;;;;18.30;16.40;;;5.70;99.90;;;;;;5097532;28;21002;-77
2023/03/13 07:26:07;;;;;;;16.83;15.13;;;5.90;99.90;;;;;;5097443;28;20623;-77
2023/03/13 07:28:35;;;;;;;17.33;15.37;;;6.30;99.90;;;;;;5105428;28;20929;-77
2023/03/13 07:31:06;;;;;;;16.33;13.00;;;6.30;99.90;;;;;;5104265;28;20447;-77
2023/03/13 07:33:33;;;;;;;17.97;13.90;;;6.00;99.90;;;;;;5104090;28;20463;-78
2023/03/13 07:36:02;;;;;;;14.87;13.40;;;6.10;99.90;;;;;;5102678;28;20443;-78
2023/03/13 07:38:28;;;;;;;16.90;12.73;;;5.90;99.90;;;;;;5104690;28;21051;-78
2023/03/13 07:40:57;;;;;;;17.33;15.57;;;6.00;99.90;;;;;;5102709;28;20804;-80
2023/03/13 07:43:24;;;;;;;15.47;13.00;;;5.90;99.90;;;;;;5101921;28;20961;-77
2023/03/13 07:45:56;;;;;;;16.13;13.83;;;5.90;99.90;;;;;;5094750;28;20459;-77
2023/03/13 07:48:24;;;;;;;14.70;13.07;;;6.00;99.90;;;;;;5100165;28;20503;-82
2023/03/13 07:50:51;;;;;;;13.80;12.40;;;6.10;99.90;;;;;;5106695;28;20503;-77
2023/03/13 07:53:20;;;;;;;15.17;11.67;;;6.40;99.90;;;;;;5096984;28;20451;-77
2023/03/13 07:55:55;;;;;;;13.93;10.60;;;6.60;99.90;;;;;;5102840;28;20470;-77
2023/03/13 07:58:23;;;;;;;10.87;9.60;;;6.70;99.90;;;;;;5105825;28;20454;-79
2023/03/13 08:00:50;;;;;;;11.90;8.20;;;6.70;99.90;;;;;;5097456;28;20511;-77
2023/03/13 08:03:17;;;;;;;12.70;7.97;;;6.80;99.90;;;;;;5104676;28;20691;-77
2023/03/13 08:05:44;;;;;;;15.10;8.53;;;7.00;99.90;;;;;;5096537;28;20454;-77
2023/03/13 08:08:11;;;;;;;10.40;6.73;;;7.10;99.90;;;;;;5102847;28;20454;-77
2023/03/13 08:10:40;;;;;;;9.70;7.47;;;7.50;99.90;;;;;;5102309;28;20458;-77
2023/03/13 08:13:07;;;;;;;11.53;9.87;;;7.80;99.90;;;;;;5102824;28;21079;-77
2023/03/13 08:15:34;;;;;;;10.00;7.20;;;7.90;99.90;;;;;;5103214;28;20479;-78
2023/03/13 08:18:01;;;;;;;9.40;7.50;;;7.90;99.90;;;;;;5103203;28;20495;-78
2023/03/13 08:20:28;;;;;;;7.60;6.73;;;7.90;99.90;;;;;;5103616;28;20455;-77
2023/03/13 08:22:56;;;;;;;6.50;5.90;;;8.00;99.90;;;;;;5101044;28;21005;-77
2023/03/13 08:25:23;;;;;;;8.83;4.70;;;8.00;99.90;;;;;;5097748;28;20482;-77
2023/03/13 08:27:52;;;;;;;6.07;5.50;;;7.80;99.90;;;;;;5101641;28;20442;-77
2023/03/13 08:30:19;;;;;;;6.03;5.40;;;7.90;99.90;;;;;;5101875;28;20499;-77
2023/03/13 08:32:46;;;;;;;6.37;5.83;;;7.90;99.90;;;;;;5098232;28;20520;-77
2023/03/13 08:35:13;;;;;;;10.83;6.37;;;7.80;99.90;;;;;;5096548;28;20489;-77
2023/03/13 08:37:40;;;;;;;6.10;5.60;;;7.80;99.90;;;;;;5096212;28;20504;-77
2023/03/13 08:40:10;;;;;;;7.67;6.80;;;7.90;99.90;;;;;;5100101;28;20884;-76
2023/03/13 08:42:39;;;;;;;8.10;7.37;;;7.70;99.90;;;;;;5100043;28;20483;-77
2023/03/13 08:45:08;;;;;;;11.63;7.83;;;7.70;99.90;;;;;;5105202;28;20537;-77
2023/03/13 08:47:35;;;;;;;11.70;7.97;;;7.80;99.90;;;;;;5103898;28;20986;-77
2023/03/13 08:50:03;;;;;;;12.37;6.83;;;8.00;99.90;;;;;;5105140;28;20446;-77
2023/03/13 08:52:30;;;;;;;11.40;8.83;;;7.90;99.90;;;;;;5098456;28;20567;-77
2023/03/13 08:54:57;;;;;;;8.67;7.87;;;7.90;99.90;;;;;;5099077;28;20506;-76
2023/03/13 08:57:24;;;;;;;9.73;7.40;;;8.00;99.90;;;;;;5103254;28;20466;-77
2023/03/13 08:59:51;;;;;;;8.17;4.30;;;8.40;99.90;;;;;;5101557;28;21187;-77
2023/03/13 09:02:19;;;;;;;8.17;6.17;;;8.40;99.90;;;;;;5109153;28;20510;-77
2023/03/13 09:04:48;;;;;;;4.60;4.20;;;8.70;99.90;;;;;;5106433;28;20527;-76
2023/03/13 09:07:15;;;;;;;7.57;6.30;;;8.80;99.90;;;;;;5107835;28;21072;-77
2023/03/13 09:09:43;;;;;;;5.80;4.63;;;8.60;99.90;;;;;;5104827;28;20957;-77
2023/03/13 09:12:11;;;;;;;6.23;5.70;;;8.50;99.90;;;;;;5105434;28;20550;-77
2023/03/13 09:14:38;;;;;;;7.40;5.70;;;8.50;99.90;;;;;;5104799;28;20464;-77
2023/03/13 09:17:05;;;;;;;5.47;4.80;;;8.70;99.90;;;;;;5101049;28;20954;-77
2023/03/13 09:19:33;;;;;;;9.17;4.33;;;8.70;99.90;;;;;;5104619;28;20507;-77
2023/03/13 09:22:00;;;;;;;6.73;5.90;;;8.70;99.90;;;;;;5102601;28;20451;-77
2023/03/13 09:24:27;;;;;;;6.53;5.83;;;8.60;99.90;;;;;;5101245;28;20458;-76
2023/03/13 09:26:54;;;;;;;7.73;6.93;;;8.70;99.90;;;;;;5093507;28;20479;-79
2023/03/13 09:29:21;;;;;;;6.70;6.10;;;8.40;99.90;;;;;;5106387;28;20454;-77
2023/03/13 09:31:48;;;;;;;10.40;7.93;;;8.20;99.90;;;;;;5105149;28;20508;-77
2023/03/13 09:34:15;;;;;;;4.73;4.40;;;8.10;99.90;;;;;;5103972;28;20462;-77
2023/03/13 09:36:43;;;;;;;4.20;3.83;;;7.90;99.90;;;;;;5100719;28;21016;-77
2023/03/13 09:39:10;;;;;;;6.00;5.50;;;7.80;99.90;;;;;;5100161;28;20511;-77
2023/03/13 09:41:42;;;;;;;8.87;5.60;;;7.80;99.90;;;;;;5097849;28;21013;-77
2023/03/13 09:44:15;;;;;;;5.40;4.90;;;7.90;99.90;;;;;;5099447;28;20517;-78
2023/03/13 09:46:49;;;;;;;7.03;6.00;;;8.00;99.90;;;;;;5100178;28;20534;-77
2023/03/13 09:49:29;;;;;;;5.57;4.23;;;8.20;99.90;;;;;;5108334;28;21115;-77
2023/03/13 09:52:04;;;;;;;6.10;5.50;;;8.20;99.90;;;;;;5108512;28;20908;-77
2023/03/13 09:54:37;;;;;;;6.10;4.97;;;8.30;99.90;;;;;;5109105;28;20514;-77
2023/03/13 09:57:13;;;;;;;9.20;6.40;;;8.60;99.90;;;;;;5101668;28;21165;-77
2023/03/13 09:59:47;;;;;;;8.50;7.17;;;8.80;99.90;;;;;;5109403;28;20979;-77
2023/03/13 10:02:25;;;;;;;7.30;6.60;;;8.90;99.90;;;;;;5109755;28;20513;-77
2023/03/13 10:04:56;;;;;;;12.40;6.97;;;9.00;99.90;;;;;;5099016;28;20467;-77
2023/03/13 10:07:25;;;;;;;7.17;5.80;;;9.20;99.90;;;;;;5106560;28;20450;-77
2023/03/13 10:09:52;;;;;;;8.13;6.00;;;9.20;99.90;;;;;;5104426;28;20458;-77
2023/03/13 10:12:21;;;;;;;19.27;8.03;;;9.40;99.90;;;;;;5108168;28;20475;-77
2023/03/13 10:15:07;;;;;;;9.60;5.87;;;9.50;99.90;;;;;;5107971;28;20450;-77
2023/03/13 10:17:37;;;;;;;5.90;5.30;;;9.60;99.90;;;;;;5106369;27;21063;-77
2023/03/13 10:20:17;;;;;;;9.73;8.17;;;9.80;99.90;;;;;;5111002;27;20508;-77
2023/03/13 10:22:48;;;;;;;23.80;19.07;;;9.90;99.90;;;;;;5102664;28;20646;-77
2023/03/13 10:25:26;;;;;;;7.17;5.90;;;10.10;99.90;;;;;;5105557;28;20490;-77
2023/03/13 10:27:54;;;;;;;9.30;8.40;;;10.30;99.90;;;;;;5106063;27;20458;-77
2023/03/13 10:30:25;;;;;;;6.90;6.27;;;10.40;99.90;;;;;;5101725;27;20486;-77
2023/03/13 10:32:57;;;;;;;5.90;5.33;;;10.30;99.90;;;;;;5111522;27;20872;-77
2023/03/13 10:35:31;;;;;;;3.73;3.00;;;10.20;99.90;;;;;;5124347;27;20496;-77
2023/03/13 10:38:05;;;;;;;3.30;2.10;;;9.90;99.90;;;;;;5096009;28;21154;-77
2023/03/13 10:40:32;;;;;;;3.23;2.90;;;9.80;99.90;;;;;;5112456;27;20497;-77
2023/03/13 10:43:04;;;;;;;3.90;2.07;;;9.70;99.90;;;;;;5116372;27;20562;-77
2023/03/13 10:45:35;;;;;;;2.90;2.60;;;9.90;99.90;;;;;;5111503;27;20520;-77
2023/03/13 10:48:09;;;;;;;6.87;4.43;;;9.90;99.90;;;;;;5107295;28;20448;-76
2023/03/13 10:50:36;;;;;;;5.20;2.70;;;9.90;99.90;;;;;;5108237;28;20462;-77
2023/03/13 10:53:34;;;;;;;4.23;2.53;;;10.00;99.90;;;;;;5105289;28;20512;-76
2023/03/13 10:56:09;;;;;;;6.10;3.43;;;10.10;99.90;;;;;;5097445;28;21383;-77
2023/03/13 10:58:41;;;;;;;3.53;3.23;;;10.30;99.90;;;;;;5108200;28;20451;-77
2023/03/13 11:01:18;;;;;;;7.50;5.20;;;10.40;99.90;;;;;;5105221;28;20550;-77
2023/03/13 11:03:46;;;;;;;14.60;11.50;;;10.60;99.90;;;;;;5103333;28;20532;-77
2023/03/13 11:06:30;;;;;;;7.03;4.80;;;11.00;99.90;;;;;;5098959;28;20520;-77
2023/03/13 11:09:04;;;;;;;5.10;3.53;;;11.00;99.90;;;;;;5098311;28;20551;-76
2023/03/13 11:11:42;;;;;;;3.20;2.90;;;10.90;99.90;;;;;;5104796;28;20975;-77
2023/03/13 11:14:13;;;;;;;6.10;3.00;;;10.80;99.90;;;;;;5100996;28;20512;-76
2023/03/13 11:16:48;;;;;;;5.10;3.57;;;10.50;99.90;;;;;;5102749;28;20450;-77
2023/03/13 11:19:29;;;;;;;7.57;5.20;;;10.80;99.90;;;;;;5097619;28;20498;-77
2023/03/13 11:22:26;;;;;;;17.90;11.13;;;11.00;99.90;;;;;;5101207;28;21231;-77
2023/03/13 11:25:03;;;;;;;4.60;4.20;;;10.90;99.90;;;;;;5087890;28;20596;-77
2023/03/13 11:27:36;;;;;;;5.40;4.90;;;11.00;99.90;;;;;;5101199;28;20444;-76
2023/03/13 11:30:21;;;;;;;4.97;4.50;;;10.50;99.90;;;;;;5109883;27;20450;-77
2023/03/13 11:32:53;;;;;;;5.53;5.03;;;10.70;99.90;;;;;;5098841;28;20456;-77
2023/03/13 11:35:35;;;;;;;7.30;6.53;;;10.90;99.90;;;;;;5105959;28;20466;-77
2023/03/13 11:38:07;;;;;;;8.33;5.33;;;10.80;99.90;;;;;;5101213;28;20919;-77
2023/03/13 11:40:41;;;;;;;11.70;7.10;;;11.20;99.90;;;;;;5102103;28;20446;-77
2023/03/13 11:43:29;;;;;;;6.97;6.10;;;11.50;99.90;;;;;;5101200;28;20505;-77
2023/03/13 11:46:20;;;;;;;18.00;14.10;;;11.50;99.90;;;;;;5101064;28;20488;-77
2023/03/13 11:49:11;;;;;;;13.70;10.20;;;11.70;99.90;;;;;;5105054;28;20504;-77
2023/03/13 11:51:53;;;;;;;6.20;4.87;;;11.90;99.90;;;;;;5104038;28;20466;-77
2023/03/13 11:54:50;;;;;;;6.10;4.97;;;11.60;99.90;;;;;;5106006;28;20483;-78
2023/03/13 11:57:28;;;;;;;7.77;6.60;;;11.30;99.90;;;;;;5104881;28;20547;-78
2023/03/13 12:00:15;;;;;;;7.97;6.73;;;11.60;99.90;;;;;;5103348;28;20443;-77
2023/03/13 12:02:48;;;;;;;6.93;5.57;;;11.80;99.90;;;;;;5105756;28;20466;-77
2023/03/13 12:05:19;;;;;;;12.03;6.17;;;11.60;99.90;;;;;;5099315;28;20485;-77
2023/03/13 12:07:53;;;;;;;8.00;6.00;;;11.50;99.90;;;;;;5102255;28;20474;-77
2023/03/13 12:10:26;;;;;;;6.10;4.40;;;11.60;99.90;;;;;;5101946;28;20466;-77
2023/03/13 12:13:02;;;;;;;5.33;4.80;;;11.70;99.90;;;;;;5106045;28;20503;-76
2023/03/13 12:15:32;;;;;;;6.10;5.40;;;12.00;99.90;;;;;;5103141;28;20467;-77
2023/03/13 12:18:03;;;;;;;4.27;3.13;;;12.60;99.90;;;;;;5098561;28;20515;-77
2023/03/13 12:20:39;;;;;;;5.30;3.83;;;12.80;99.90;;;;;;5104994;28;20469;-77
2023/03/13 12:23:17;;;;;;;4.83;4.20;;;12.60;99.90;;;;;;5101424;28;20844;-77
2023/03/13 12:25:49;;;;;;;5.00;4.03;;;12.80;99.90;;;;;;5101350;28;20493;-76
2023/03/13 12:28:30;;;;;;;4.10;3.70;;;13.10;99.90;;;;;;5105515;28;20451;-77
2023/03/13 12:31:09;;;;;;;4.50;4.10;;;13.20;99.90;;;;;;5106649;28;20485;-77
2023/03/13 12:33:42;;;;;;;6.87;5.00;;;13.00;99.90;;;;;;5097285;28;20459;-77
2023/03/13 12:36:13;;;;;;;4.60;4.20;;;12.90;99.90;;;;;;5103951;28;20455;-77
2023/03/13 12:38:45;;;;;;;6.70;4.97;;;12.70;99.90;;;;;;5110209;28;20455;-77
2023/03/13 12:41:23;;;;;;;6.40;5.70;;;12.80;99.90;;;;;;5104725;28;20451;-76
2023/03/13 12:43:52;;;;;;;4.00;3.67;;;12.50;99.90;;;;;;5110240;28;20573;-77
2023/03/13 12:46:36;;;;;;;4.90;3.07;;;12.10;99.90;;;;;;5100769;28;20466;-77
2023/03/13 12:49:39;;;;;;;5.90;3.80;;;12.00;99.90;;;;;;5107645;28;20446;-77
2023/03/13 12:52:26;;;;;;;8.30;4.50;;;11.90;99.90;;;;;;5108245;28;20472;-77
2023/03/13 12:55:06;;;;;;;5.20;4.20;;;11.80;99.90;;;;;;5103364;28;20454;-76
2023/03/13 12:58:18;;;;;;;8.37;5.40;;;12.00;99.90;;;;;;5103208;28;20524;-76